createdAt,value
2018-12-09T00:02:38.607Z,8.00
2018-12-09T00:07:53.691Z,9.87
2018-12-09T00:12:55.643Z,10.73
2018-12-09T00:17:57.969Z,7.60
2018-12-09T00:22:59.877Z,10.27
2018-12-09T00:28:02.391Z,7.57
2018-12-09T00:33:04.494Z,10.27
2018-12-09T00:38:06.582Z,10.80
2018-12-09T00:43:08.460Z,8.70
2018-12-09T00:48:11.632Z,11.60
2018-12-09T00:53:13.399Z,9.27
2018-12-09T00:58:31.351Z,9.13
2018-12-09T01:03:33.308Z,8.70
2018-12-09T01:08:35.685Z,9.30
2018-12-09T01:13:37.597Z,9.50
2018-12-09T01:18:39.587Z,7.83
2018-12-09T01:23:42.124Z,7.50
2018-12-09T01:28:44.274Z,7.90
2018-12-09T01:33:46.400Z,7.07
2018-12-09T01:39:01.251Z,6.13
2018-12-09T01:44:03.373Z,5.47
2018-12-09T01:49:05.753Z,4.13
2018-12-09T01:54:09.333Z,3.50
2018-12-09T01:59:11.694Z,3.23
2018-12-09T02:04:18.485Z,3.60
2018-12-09T02:09:20.375Z,2.53
2018-12-09T02:14:22.262Z,2.23
2018-12-09T02:19:24.209Z,2.80
2018-12-09T02:24:25.989Z,4.37
2018-12-09T02:29:29.750Z,3.70
2018-12-09T02:34:32.502Z,4.30
2018-12-09T02:39:41.144Z,3.60
2018-12-09T02:44:43.844Z,3.13
2018-12-09T02:49:49.420Z,2.83
2018-12-09T02:54:51.316Z,2.90
2018-12-09T02:59:53.403Z,5.20
2018-12-09T03:04:59.063Z,2.70
2018-12-09T03:15:08.334Z,2.90
2018-12-09T03:20:10.221Z,3.80
2018-12-09T03:25:17.889Z,3.20
2018-12-09T03:30:20.246Z,3.30
2018-12-09T03:35:22.193Z,5.73
2018-12-09T03:40:24.114Z,4.77
2018-12-09T03:45:26.471Z,4.70
2018-12-09T03:50:35.936Z,5.00
2018-12-09T03:55:38.017Z,4.20
2018-12-09T04:00:39.893Z,5.30
2018-12-09T04:05:42.051Z,8.60
2018-12-09T04:10:44.856Z,6.73
2018-12-09T04:15:48.809Z,6.87
2018-12-09T04:20:50.911Z,4.93
2018-12-09T04:25:53.413Z,5.83
2018-12-09T04:30:56.719Z,7.43
2018-12-09T04:35:58.815Z,5.20
2018-12-09T04:41:00.885Z,3.60
2018-12-09T04:46:02.765Z,4.13
2018-12-09T04:51:11.808Z,3.83
2018-12-09T04:56:14.096Z,6.43
2018-12-09T05:01:16.595Z,4.90
2018-12-09T05:06:33.008Z,4.77
2018-12-09T05:11:35.091Z,4.20
2018-12-09T05:16:38.403Z,4.40
2018-12-09T05:21:47.652Z,5.27
2018-12-09T05:26:50.962Z,3.10
2018-12-09T05:31:52.843Z,4.57
2018-12-09T05:36:54.969Z,4.93
2018-12-09T05:41:56.741Z,5.63
2018-12-09T05:47:00.953Z,4.30
2018-12-09T05:57:26.672Z,4.03
2018-12-09T06:02:40.563Z,5.47
2018-12-09T06:07:42.360Z,3.60
2018-12-09T06:12:58.085Z,2.33
2018-12-09T06:18:00.083Z,3.90
2018-12-09T06:23:02.138Z,3.27
2018-12-09T06:28:04.296Z,4.33
2018-12-09T06:33:07.580Z,3.60
2018-12-09T06:38:09.682Z,4.30
2018-12-09T06:43:13.093Z,5.43
2018-12-09T06:48:34.728Z,4.10
2018-12-09T06:53:37.251Z,4.50
2018-12-09T06:58:39.629Z,4.00
2018-12-09T07:03:41.825Z,3.03
2018-12-09T07:08:47.069Z,3.33
2018-12-09T07:13:49.236Z,3.93
2018-12-09T07:18:51.558Z,4.20
2018-12-09T07:23:53.667Z,3.00
2018-12-09T07:28:55.543Z,4.23
2018-12-09T07:33:58.669Z,3.23
2018-12-09T07:39:00.730Z,2.80
2018-12-09T07:49:27.354Z,3.17
2018-12-09T07:54:29.713Z,2.80
2018-12-09T07:59:31.792Z,3.00
2018-12-09T08:04:33.678Z,2.97
2018-12-09T08:09:35.752Z,2.73
2018-12-09T08:14:37.507Z,1.60
2018-12-09T08:19:39.542Z,2.10
2018-12-09T08:24:48.194Z,1.87
2018-12-09T08:29:50.523Z,3.60
2018-12-09T08:34:52.564Z,2.90
2018-12-09T08:39:54.653Z,2.43
2018-12-09T08:44:56.734Z,3.30
2018-12-09T08:49:58.495Z,8.50
2018-12-09T08:55:00.273Z,4.90
2018-12-09T09:00:05.249Z,4.03
2018-12-09T09:05:07.167Z,3.63
2018-12-09T09:10:09.439Z,3.40
2018-12-09T09:15:11.278Z,4.33
2018-12-09T09:20:13.130Z,4.30
2018-12-09T09:25:15.042Z,1.80
2018-12-09T09:30:29.434Z,2.30
2018-12-09T09:35:31.317Z,2.00
2018-12-09T09:40:33.973Z,2.60
2018-12-09T09:45:35.734Z,2.60
2018-12-09T09:50:37.577Z,2.50
2018-12-09T09:55:41.654Z,2.60
2018-12-09T10:05:55.103Z,3.30
2018-12-09T10:10:57.406Z,3.80
2018-12-09T10:15:59.202Z,2.57
2018-12-09T10:21:01.962Z,1.20
2018-12-09T10:26:04.179Z,1.43
2018-12-09T10:31:06.329Z,1.83
2018-12-09T10:36:08.235Z,1.80
2018-12-09T10:41:10.111Z,2.77
2018-12-09T10:46:12.393Z,1.50
2018-12-09T10:51:14.923Z,1.80
2018-12-09T10:56:17.004Z,1.43
2018-12-09T11:01:24.985Z,1.80
2018-12-09T11:06:27.080Z,2.00
2018-12-09T11:11:28.955Z,1.87
2018-12-09T11:16:31.503Z,1.97
2018-12-09T11:21:34.246Z,2.10
2018-12-09T11:26:36.499Z,1.40
2018-12-09T11:31:38.662Z,2.03
2018-12-09T11:36:40.562Z,2.03
2018-12-09T11:41:42.994Z,2.03
2018-12-09T11:46:45.293Z,2.87
2018-12-09T11:51:47.165Z,3.30
2018-12-09T12:02:02.263Z,4.70
2018-12-09T12:07:04.356Z,4.97
2018-12-09T12:12:08.268Z,3.93
2018-12-09T12:17:10.620Z,5.67
2018-12-09T12:22:12.839Z,5.00
2018-12-09T12:27:15.374Z,5.10
2018-12-09T12:32:17.925Z,5.60
2018-12-09T12:37:20.293Z,4.97
2018-12-09T12:42:22.821Z,3.90
2018-12-09T12:47:24.904Z,5.03
2018-12-09T12:52:29.608Z,4.77
2018-12-09T12:57:32.404Z,4.57
2018-12-09T13:02:34.367Z,4.10
2018-12-09T13:07:36.636Z,5.23
2018-12-09T13:12:40.868Z,6.83
2018-12-09T13:17:45.459Z,6.93
2018-12-09T13:22:50.864Z,7.07
2018-12-09T13:27:56.775Z,8.20
2018-12-09T13:33:00.707Z,8.67
2018-12-09T13:38:03.316Z,7.43
2018-12-09T13:43:09.294Z,7.90
2018-12-09T13:48:12.518Z,7.50
2018-12-09T13:53:16.571Z,9.50
2018-12-09T13:58:19.213Z,9.00
2018-12-09T14:03:22.406Z,7.40
2018-12-09T14:08:25.428Z,8.00
2018-12-09T14:13:36.024Z,7.97
2018-12-09T14:18:39.789Z,8.77
2018-12-09T14:23:43.174Z,10.33
2018-12-09T14:28:48.842Z,9.87
2018-12-09T14:33:55.655Z,7.80
2018-12-09T14:38:58.074Z,9.90
2018-12-09T14:44:00.239Z,8.57
2018-12-09T14:49:10.747Z,7.20
2018-12-09T14:54:15.374Z,8.50
2018-12-09T14:59:26.270Z,8.03
2018-12-09T15:04:31.683Z,10.47
2018-12-09T15:09:36.697Z,10.37
2018-12-09T15:14:40.916Z,12.43
2018-12-09T15:19:43.782Z,8.63
2018-12-09T15:24:47.323Z,11.80
2018-12-09T15:29:53.126Z,12.50
2018-12-09T15:34:55.741Z,13.70
2018-12-09T15:39:58.485Z,10.33
2018-12-09T15:45:00.921Z,9.47
2018-12-09T15:50:03.376Z,14.73
2018-12-09T15:55:06.066Z,10.97
2018-12-09T16:00:09.856Z,13.40
2018-12-09T16:05:15.899Z,12.40
2018-12-09T16:10:18.619Z,10.73
2018-12-09T16:15:26.453Z,8.17
2018-12-09T16:20:33.930Z,10.27
2018-12-09T16:25:42.268Z,7.63
2018-12-09T16:30:47.132Z,6.70
2018-12-09T16:35:50.315Z,6.80
2018-12-09T16:40:52.641Z,6.40
2018-12-09T16:45:55.512Z,6.77
2018-12-09T16:50:58.025Z,6.10
2018-12-09T16:56:00.545Z,6.00
2018-12-09T17:01:03.845Z,4.30
2018-12-09T17:06:06.918Z,5.40
2018-12-09T17:11:09.459Z,5.50
2018-12-09T17:16:15.411Z,7.43
2018-12-09T17:21:18.814Z,6.20
2018-12-09T17:26:26.111Z,5.17
2018-12-09T17:31:29.519Z,8.30
2018-12-09T17:36:32.602Z,8.60
2018-12-09T17:41:36.639Z,9.00
2018-12-09T17:46:43.236Z,8.40
2018-12-09T17:51:48.727Z,7.27
2018-12-09T17:56:52.265Z,7.67
2018-12-09T18:01:55.595Z,6.60
2018-12-09T18:06:59.822Z,7.37
2018-12-09T18:12:02.941Z,8.40
2018-12-09T18:17:05.659Z,8.53
2018-12-09T18:22:30.093Z,6.33
2018-12-09T18:27:38.823Z,8.90
2018-12-09T18:32:43.842Z,9.57
2018-12-09T18:37:48.350Z,9.80
2018-12-09T18:42:53.997Z,9.90
2018-12-09T18:47:58.061Z,9.70
2018-12-09T18:53:02.703Z,9.23
2018-12-09T18:58:08.677Z,7.97
2018-12-09T19:03:12.096Z,10.73
2018-12-09T19:08:15.167Z,8.97
2018-12-09T19:13:18.187Z,9.30
2018-12-09T19:18:21.410Z,11.43
2018-12-09T19:23:24.709Z,10.30
2018-12-09T19:28:28.052Z,9.80
2018-12-09T19:33:31.208Z,9.80
2018-12-09T19:38:40.175Z,10.67
2018-12-09T19:43:39.907Z,9.90
2018-12-09T19:48:43.123Z,10.33
2018-12-09T19:53:47.232Z,10.07
2018-12-09T19:58:51.311Z,9.57
2018-12-09T20:03:55.718Z,8.40
2018-12-09T20:09:02.586Z,8.00
2018-12-09T20:14:06.959Z,9.60
2018-12-09T20:19:10.925Z,7.23
2018-12-09T20:24:15.684Z,7.43
2018-12-09T20:29:19.856Z,6.47
2018-12-09T20:34:25.370Z,6.90
2018-12-09T20:39:29.062Z,7.93
2018-12-09T20:44:36.089Z,8.57
2018-12-09T20:49:39.956Z,7.93
2018-12-09T20:54:43.575Z,7.30
2018-12-09T20:59:47.203Z,8.80
2018-12-09T21:04:53.422Z,6.93
2018-12-09T21:09:57.437Z,7.20
2018-12-09T21:15:03.192Z,6.47
2018-12-09T21:20:05.691Z,9.53
2018-12-09T21:25:09.917Z,8.93
2018-12-09T21:30:12.779Z,8.20
2018-12-09T21:35:19.242Z,8.40
2018-12-09T21:40:21.970Z,6.83
2018-12-09T21:45:24.949Z,8.33
2018-12-09T21:50:27.536Z,6.60
2018-12-09T21:55:32.855Z,8.13
2018-12-09T22:00:36.509Z,6.80
2018-12-09T22:05:39.140Z,8.27
2018-12-09T22:10:41.219Z,7.90
2018-12-09T22:15:44.280Z,6.87
2018-12-09T22:20:46.830Z,6.63
2018-12-09T22:25:50.207Z,6.43
2018-12-09T22:36:21.968Z,8.50
2018-12-09T22:41:24.605Z,8.87
2018-12-09T22:46:26.652Z,7.53
2018-12-09T22:51:29.171Z,7.57
2018-12-09T22:56:30.979Z,7.47
2018-12-09T23:01:33.080Z,8.30
2018-12-09T23:06:43.581Z,9.40
2018-12-09T23:11:45.702Z,6.87
2018-12-09T23:16:47.714Z,6.47
2018-12-09T23:21:50.743Z,7.63
2018-12-09T23:26:53.148Z,7.37
2018-12-09T23:31:55.674Z,8.83
2018-12-09T23:36:57.754Z,8.57
2018-12-09T23:42:03.683Z,6.77
2018-12-09T23:47:06.789Z,5.73
2018-12-09T23:52:22.904Z,8.23
2018-12-09T23:57:25.159Z,4.97
